Time;durP1;ratioP1;P1;durP2;ratioP2;P2;SDS_P1;SDS_P2;PMS_P1;PMS_P2;Temp;Humidity;BMP_temperature;BMP_pressure;BME280_temperature;BME280_humidity;BME280_pressure;Samples;Min_cycle;Max_cycle;Signal;HPM_P1;HPM_P2
2023/07/15 00:02:03;;;;;;;3.50;1.60;;;;;;;;;;5077917;28;20198;-69
2023/07/15 00:04:30;;;;;;;4.38;1.70;;;;;;;;;;5079644;28;20285;-70
2023/07/15 00:06:58;;;;;;;1.95;1.48;;;;;;;;;;5078636;28;20199;-70
2023/07/15 00:09:27;;;;;;;3.13;1.52;;;;;;;;;;5075395;28;20223;-70
2023/07/15 00:11:56;;;;;;;3.67;1.35;;;;;;;;;;5077724;28;20233;-70
2023/07/15 00:14:25;;;;;;;1.80;1.70;;;;;;;;;;5081260;28;20203;-70
2023/07/15 00:16:53;;;;;;;1.70;1.58;;;;;;;;;;5086236;28;20202;-70
2023/07/15 00:19:20;;;;;;;2.15;1.40;;;;;;;;;;5081260;28;20218;-70
2023/07/15 00:21:47;;;;;;;2.45;1.50;;;;;;;;;;5078826;28;20198;-70
2023/07/15 00:24:15;;;;;;;2.03;1.40;;;;;;;;;;5073170;28;20249;-70
2023/07/15 00:26:42;;;;;;;3.20;1.70;;;;;;;;;;5073396;28;20203;-70
2023/07/15 00:29:10;;;;;;;4.70;1.50;;;;;;;;;;5073821;28;20199;-70
2023/07/15 00:31:38;;;;;;;3.03;1.45;;;;;;;;;;5080086;28;20195;-69
2023/07/15 00:34:05;;;;;;;1.92;1.50;;;;;;;;;;5077872;28;20199;-70
2023/07/15 00:36:33;;;;;;;3.42;1.50;;;;;;;;;;5078980;28;20214;-70
2023/07/15 00:39:00;;;;;;;3.00;1.60;;;;;;;;;;5077413;28;20197;-70
2023/07/15 00:41:29;;;;;;;3.20;1.70;;;;;;;;;;5071735;28;20209;-70
2023/07/15 00:43:56;;;;;;;1.60;1.50;;;;;;;;;;5076391;28;20202;-69
2023/07/15 00:46:57;;;;;;;1.77;1.42;;;;;;;;;;5080142;28;20198;-70
2023/07/15 00:49:27;;;;;;;1.52;1.38;;;;;;;;;;5084339;28;20199;-70
2023/07/15 00:51:57;;;;;;;3.13;1.70;;;;;;;;;;5078196;28;20226;-70
2023/07/15 00:54:25;;;;;;;1.98;1.60;;;;;;;;;;5084361;28;20199;-70
2023/07/15 00:56:52;;;;;;;1.48;1.38;;;;;;;;;;5075223;28;20270;-70
2023/07/15 00:59:19;;;;;;;3.45;1.50;;;;;;;;;;5080527;28;20226;-70
2023/07/15 01:01:47;;;;;;;2.10;1.50;;;;;;;;;;5077969;28;20206;-70
2023/07/15 01:04:14;;;;;;;5.00;1.67;;;;;;;;;;5074852;28;20233;-70
2023/07/15 01:06:45;;;;;;;2.20;1.50;;;;;;;;;;5079056;28;20195;-70
2023/07/15 01:09:12;;;;;;;1.60;1.50;;;;;;;;;;5075927;28;20227;-71
2023/07/15 01:11:40;;;;;;;2.35;1.60;;;;;;;;;;5079844;28;20235;-70
2023/07/15 01:14:09;;;;;;;1.77;1.58;;;;;;;;;;5078766;28;20203;-70
2023/07/15 01:16:36;;;;;;;2.95;1.75;;;;;;;;;;5081940;28;20198;-70
2023/07/15 01:19:03;;;;;;;1.67;1.40;;;;;;;;;;5077684;28;20205;-70
2023/07/15 01:21:32;;;;;;;2.22;1.60;;;;;;;;;;5079936;28;20217;-70
2023/07/15 01:24:00;;;;;;;2.17;1.52;;;;;;;;;;5076182;28;20218;-70
2023/07/15 01:26:28;;;;;;;2.38;1.50;;;;;;;;;;5078634;28;20199;-70
2023/07/15 01:28:55;;;;;;;2.90;1.60;;;;;;;;;;5076196;28;20237;-70
2023/07/15 01:31:22;;;;;;;2.92;1.70;;;;;;;;;;5078686;28;20210;-69
2023/07/15 01:33:49;;;;;;;3.85;1.52;;;;;;;;;;5075230;28;20227;-70
2023/07/15 01:36:16;;;;;;;1.80;1.40;;;;;;;;;;5074150;28;20209;-70
2023/07/15 01:38:43;;;;;;;2.25;1.55;;;;;;;;;;5069716;28;20201;-70
2023/07/15 01:41:12;;;;;;;1.85;1.50;;;;;;;;;;5077784;28;20206;-70
2023/07/15 01:43:39;;;;;;;2.65;1.52;;;;;;;;;;5075179;28;20195;-70
2023/07/15 01:46:06;;;;;;;1.70;1.60;;;;;;;;;;5077216;28;20203;-70
2023/07/15 01:48:33;;;;;;;2.40;1.50;;;;;;;;;;5081725;28;20208;-70
2023/07/15 01:51:01;;;;;;;2.13;1.40;;;;;;;;;;5073368;28;20206;-70
2023/07/15 01:53:28;;;;;;;1.65;1.40;;;;;;;;;;5072015;28;20228;-69
2023/07/15 01:55:55;;;;;;;3.30;1.85;;;;;;;;;;5075645;28;20209;-70
2023/07/15 01:58:23;;;;;;;1.40;1.30;;;;;;;;;;5074474;28;20297;-70
2023/07/15 02:00:51;;;;;;;1.98;1.38;;;;;;;;;;5077772;28;20209;-70
2023/07/15 02:03:18;;;;;;;1.60;1.40;;;;;;;;;;5079197;28;20194;-70
2023/07/15 02:05:45;;;;;;;1.75;1.50;;;;;;;;;;5073539;28;20199;-70
2023/07/15 02:08:13;;;;;;;2.67;1.52;;;;;;;;;;5070825;28;20203;-70
2023/07/15 02:10:40;;;;;;;1.65;1.40;;;;;;;;;;5074575;28;20293;-71
2023/07/15 02:13:09;;;;;;;3.03;1.60;;;;;;;;;;5077944;28;20223;-70
2023/07/15 02:15:37;;;;;;;2.35;1.50;;;;;;;;;;5078573;28;20202;-70
2023/07/15 02:18:04;;;;;;;4.28;1.58;;;;;;;;;;5080084;28;20205;-70
2023/07/15 02:20:31;;;;;;;3.58;1.67;;;;;;;;;;5075063;28;20199;-70
2023/07/15 02:22:59;;;;;;;1.70;1.60;;;;;;;;;;5080451;28;20195;-70
2023/07/15 02:25:26;;;;;;;2.75;1.48;;;;;;;;;;5069574;28;20198;-70
2023/07/15 02:27:53;;;;;;;1.30;1.30;;;;;;;;;;5070522;28;20209;-70
2023/07/15 02:30:20;;;;;;;1.65;1.55;;;;;;;;;;5079833;28;20219;-70
2023/07/15 02:32:49;;;;;;;2.65;1.40;;;;;;;;;;5074696;28;20231;-70
2023/07/15 02:35:16;;;;;;;2.05;1.58;;;;;;;;;;5076290;28;20202;-70
2023/07/15 02:37:44;;;;;;;1.67;1.48;;;;;;;;;;5079158;28;20226;-70
2023/07/15 02:40:11;;;;;;;2.50;1.60;;;;;;;;;;5072326;28;20194;-70
2023/07/15 02:42:39;;;;;;;1.60;1.50;;;;;;;;;;5079247;28;20195;-70
2023/07/15 02:45:07;;;;;;;2.63;1.77;;;;;;;;;;5081037;28;20290;-69
2023/07/15 02:47:34;;;;;;;3.08;1.60;;;;;;;;;;5078838;28;20289;-70
2023/07/15 02:50:04;;;;;;;2.58;1.40;;;;;;;;;;5068539;28;20202;-70
2023/07/15 02:52:32;;;;;;;1.85;1.40;;;;;;;;;;5079387;28;20233;-69
2023/07/15 02:55:01;;;;;;;5.55;1.77;;;;;;;;;;5077287;28;20206;-70
2023/07/15 02:57:28;;;;;;;2.05;1.60;;;;;;;;;;5070405;28;20205;-70
2023/07/15 02:59:55;;;;;;;1.50;1.40;;;;;;;;;;5069791;28;20289;-70
2023/07/15 03:02:23;;;;;;;1.50;1.40;;;;;;;;;;5071823;28;20241;-70
2023/07/15 03:04:50;;;;;;;2.30;1.52;;;;;;;;;;5075690;28;20205;-69
2023/07/15 03:07:19;;;;;;;1.60;1.50;;;;;;;;;;5074065;28;20210;-69
2023/07/15 03:09:46;;;;;;;1.90;1.40;;;;;;;;;;5069519;28;20230;-69
2023/07/15 03:12:13;;;;;;;5.70;1.67;;;;;;;;;;5075062;28;20240;-69
2023/07/15 03:14:42;;;;;;;1.83;1.60;;;;;;;;;;5074994;28;20323;-69
2023/07/15 03:17:10;;;;;;;2.33;1.70;;;;;;;;;;5078276;28;20212;-70
2023/07/15 03:19:37;;;;;;;3.28;1.80;;;;;;;;;;5074356;28;20202;-69
2023/07/15 03:22:05;;;;;;;2.33;1.77;;;;;;;;;;5075147;28;20206;-71
2023/07/15 03:24:35;;;;;;;1.83;1.60;;;;;;;;;;5077173;28;20202;-70
2023/07/15 03:27:03;;;;;;;2.03;1.70;;;;;;;;;;5074397;28;20209;-70
2023/07/15 03:29:30;;;;;;;1.63;1.52;;;;;;;;;;5073266;28;20211;-69
2023/07/15 03:31:57;;;;;;;2.00;1.80;;;;;;;;;;5076575;28;20210;-69
2023/07/15 03:34:24;;;;;;;1.77;1.50;;;;;;;;;;5068854;28;20227;-69
2023/07/15 03:36:51;;;;;;;3.15;1.90;;;;;;;;;;5071013;28;20211;-69
2023/07/15 03:39:19;;;;;;;2.60;1.60;;;;;;;;;;5074594;28;20206;-68
2023/07/15 03:41:48;;;;;;;2.33;1.55;;;;;;;;;;5073307;28;20202;-68
2023/07/15 03:44:15;;;;;;;2.08;1.73;;;;;;;;;;5068145;28;20198;-68
2023/07/15 03:46:42;;;;;;;1.70;1.60;;;;;;;;;;5079974;28;20198;-69
2023/07/15 03:49:10;;;;;;;3.03;1.40;;;;;;;;;;5075493;28;20217;-69
2023/07/15 03:51:37;;;;;;;1.98;1.65;;;;;;;;;;5069291;28;20210;-69
2023/07/15 03:54:05;;;;;;;2.13;1.58;;;;;;;;;;5074690;28;20230;-69
2023/07/15 03:56:33;;;;;;;1.52;1.42;;;;;;;;;;5075090;28;20234;-69
2023/07/15 03:59:01;;;;;;;1.77;1.67;;;;;;;;;;5068679;28;20221;-69
2023/07/15 04:01:28;;;;;;;1.80;1.67;;;;;;;;;;5069850;28;20203;-69
2023/07/15 04:03:55;;;;;;;4.15;1.70;;;;;;;;;;5073681;28;20245;-69
2023/07/15 04:06:23;;;;;;;3.45;1.60;;;;;;;;;;5069665;28;20202;-69
2023/07/15 04:08:50;;;;;;;3.03;1.92;;;;;;;;;;5068758;28;20296;-69
2023/07/15 04:11:18;;;;;;;1.52;1.42;;;;;;;;;;5078860;28;20210;-70
2023/07/15 04:13:45;;;;;;;2.08;1.88;;;;;;;;;;5079247;28;20219;-70
2023/07/15 04:16:14;;;;;;;4.07;2.00;;;;;;;;;;5082445;28;20221;-69
2023/07/15 04:18:42;;;;;;;1.55;1.45;;;;;;;;;;5080618;28;20203;-70
2023/07/15 04:21:09;;;;;;;3.35;2.00;;;;;;;;;;5082308;28;20231;-70
2023/07/15 04:23:36;;;;;;;2.35;1.73;;;;;;;;;;5073709;28;20212;-70
2023/07/15 04:26:06;;;;;;;3.00;1.80;;;;;;;;;;5078408;28;20214;-70
2023/07/15 04:28:33;;;;;;;2.00;1.70;;;;;;;;;;5074303;28;20203;-70
2023/07/15 04:31:00;;;;;;;2.60;1.77;;;;;;;;;;5082180;28;20221;-69
2023/07/15 04:33:28;;;;;;;2.03;1.70;;;;;;;;;;5074157;28;20222;-69
2023/07/15 04:35:56;;;;;;;2.05;1.70;;;;;;;;;;5070950;28;20194;-70
2023/07/15 04:38:23;;;;;;;3.63;1.77;;;;;;;;;;5077786;28;20293;-70
2023/07/15 04:40:51;;;;;;;3.35;1.67;;;;;;;;;;5077287;28;20221;-70
2023/07/15 04:43:20;;;;;;;2.17;1.63;;;;;;;;;;5076413;28;20203;-70
2023/07/15 04:45:47;;;;;;;1.88;1.50;;;;;;;;;;5071543;28;20294;-70
2023/07/15 04:48:14;;;;;;;2.35;1.67;;;;;;;;;;5077105;28;20199;-69
2023/07/15 04:50:43;;;;;;;1.63;1.52;;;;;;;;;;5078074;28;20210;-70
2023/07/15 04:53:10;;;;;;;1.98;1.77;;;;;;;;;;5077165;28;20195;-67
2023/07/15 04:55:37;;;;;;;3.78;1.55;;;;;;;;;;5076697;28;20293;-70
2023/07/15 04:58:05;;;;;;;2.58;1.58;;;;;;;;;;5080427;28;20292;-70
2023/07/15 05:00:32;;;;;;;4.38;1.90;;;;;;;;;;5076502;28;20249;-70
2023/07/15 05:03:01;;;;;;;3.05;1.83;;;;;;;;;;5077441;28;20202;-70
2023/07/15 05:05:28;;;;;;;3.30;1.60;;;;;;;;;;5077717;28;20213;-70
2023/07/15 05:08:03;;;;;;;4.60;1.88;;;;;;;;;;5081532;28;20221;-70
2023/07/15 05:10:30;;;;;;;2.65;1.70;;;;;;;;;;5068248;28;20263;-71
2023/07/15 05:12:57;;;;;;;3.72;2.00;;;;;;;;;;5071469;28;20276;-70
2023/07/15 05:15:24;;;;;;;2.80;1.70;;;;;;;;;;5079629;28;20221;-67
2023/07/15 05:17:51;;;;;;;4.05;1.70;;;;;;;;;;5076697;28;20290;-69
2023/07/15 05:20:19;;;;;;;5.57;2.08;;;;;;;;;;5074135;28;20217;-67
2023/07/15 05:22:46;;;;;;;2.67;1.90;;;;;;;;;;5078350;28;20224;-69
2023/07/15 05:25:16;;;;;;;2.58;2.00;;;;;;;;;;5072238;28;20191;-70
2023/07/15 05:27:43;;;;;;;3.35;1.77;;;;;;;;;;5075413;28;20198;-68
2023/07/15 05:30:11;;;;;;;10.60;2.00;;;;;;;;;;5069690;28;20195;-68
2023/07/15 05:32:38;;;;;;;3.67;2.25;;;;;;;;;;5075529;28;20234;-69
2023/07/15 05:35:05;;;;;;;2.15;1.90;;;;;;;;;;5077933;28;20226;-69
2023/07/15 05:37:32;;;;;;;2.88;1.90;;;;;;;;;;5076808;28;20210;-68
2023/07/15 05:40:00;;;;;;;2.33;2.10;;;;;;;;;;5078422;28;20202;-68
2023/07/15 05:42:28;;;;;;;3.10;1.95;;;;;;;;;;5074415;28;20206;-69
2023/07/15 05:44:55;;;;;;;4.22;2.10;;;;;;;;;;5076263;28;20194;-69
2023/07/15 05:47:22;;;;;;;1.80;1.65;;;;;;;;;;5068401;28;20310;-69
2023/07/15 05:49:50;;;;;;;4.10;2.00;;;;;;;;;;5071843;28;20205;-70
2023/07/15 05:52:17;;;;;;;2.90;2.10;;;;;;;;;;5072947;28;20202;-66
2023/07/15 05:54:44;;;;;;;1.85;1.70;;;;;;;;;;5073073;28;20217;-68
2023/07/15 05:57:11;;;;;;;4.20;1.95;;;;;;;;;;5069771;28;20202;-68
2023/07/15 05:59:40;;;;;;;4.10;1.95;;;;;;;;;;5068713;28;20201;-67
2023/07/15 06:02:07;;;;;;;3.45;1.88;;;;;;;;;;5066680;28;20207;-68
2023/07/15 06:04:34;;;;;;;2.45;1.73;;;;;;;;;;5068846;28;20209;-68
2023/07/15 06:07:01;;;;;;;5.55;1.98;;;;;;;;;;5081808;28;20198;-68
2023/07/15 06:09:28;;;;;;;2.97;1.70;;;;;;;;;;5082355;28;20270;-68
2023/07/15 06:11:56;;;;;;;7.03;2.10;;;;;;;;;;5076780;28;20203;-67
2023/07/15 06:14:23;;;;;;;2.88;1.70;;;;;;;;;;5069640;28;20220;-68
2023/07/15 06:16:51;;;;;;;5.85;2.00;;;;;;;;;;5074556;28;20210;-66
2023/07/15 06:19:18;;;;;;;3.40;1.90;;;;;;;;;;5075411;28;20207;-69
2023/07/15 06:21:46;;;;;;;3.85;1.90;;;;;;;;;;5076270;28;20209;-70
2023/07/15 06:24:14;;;;;;;13.52;2.20;;;;;;;;;;5074605;28;20199;-70
2023/07/15 06:26:41;;;;;;;7.20;2.35;;;;;;;;;;5077723;28;20206;-70
2023/07/15 06:29:08;;;;;;;4.32;2.40;;;;;;;;;;5069842;28;20207;-70
2023/07/15 06:31:35;;;;;;;4.65;2.08;;;;;;;;;;5074163;28;20221;-71
2023/07/15 06:34:04;;;;;;;7.03;2.28;;;;;;;;;;5073026;28;20218;-70
2023/07/15 06:36:31;;;;;;;5.80;2.22;;;;;;;;;;5074055;28;20218;-68
2023/07/15 06:38:58;;;;;;;4.10;2.20;;;;;;;;;;5064350;28;20207;-68
2023/07/15 06:41:25;;;;;;;3.58;2.40;;;;;;;;;;5066203;28;20206;-68
2023/07/15 06:43:52;;;;;;;5.50;2.08;;;;;;;;;;5070494;28;20207;-67
2023/07/15 06:46:19;;;;;;;3.47;2.30;;;;;;;;;;5072978;28;20233;-69
2023/07/15 06:48:48;;;;;;;2.90;2.20;;;;;;;;;;5068999;28;20199;-70
2023/07/15 06:51:18;;;;;;;3.22;2.13;;;;;;;;;;5067704;28;20260;-71
2023/07/15 06:53:45;;;;;;;3.58;2.13;;;;;;;;;;5068904;28;20214;-71
2023/07/15 06:56:12;;;;;;;2.83;2.00;;;;;;;;;;5068647;28;20198;-69
2023/07/15 06:58:39;;;;;;;3.28;2.05;;;;;;;;;;5066854;28;20209;-68
2023/07/15 07:01:06;;;;;;;3.55;2.17;;;;;;;;;;5064119;28;20208;-67
2023/07/15 07:03:34;;;;;;;6.60;2.58;;;;;;;;;;5077241;28;20200;-74
2023/07/15 07:06:02;;;;;;;3.35;2.55;;;;;;;;;;5068597;28;20194;-71
2023/07/15 07:08:30;;;;;;;4.28;2.78;;;;;;;;;;5066762;28;20210;-71
2023/07/15 07:10:57;;;;;;;3.92;2.55;;;;;;;;;;5068607;28;20265;-72
2023/07/15 07:13:24;;;;;;;6.70;2.83;;;;;;;;;;5069874;28;20203;-71
2023/07/15 07:15:52;;;;;;;3.67;2.58;;;;;;;;;;5070367;28;20218;-70
2023/07/15 07:18:19;;;;;;;3.22;2.40;;;;;;;;;;5072880;28;20198;-69
2023/07/15 07:20:46;;;;;;;3.35;2.13;;;;;;;;;;5076881;28;20213;-71
2023/07/15 07:23:13;;;;;;;3.05;2.55;;;;;;;;;;5073110;28;20214;-71
2023/07/15 07:25:43;;;;;;;3.63;2.67;;;;;;;;;;5072078;28;20198;-70
2023/07/15 07:28:10;;;;;;;4.10;2.47;;;;;;;;;;5075470;28;20198;-70
2023/07/15 07:30:38;;;;;;;2.78;2.47;;;;;;;;;;5070152;28;20214;-70
2023/07/15 07:33:05;;;;;;;3.20;2.70;;;;;;;;;;5076752;28;20202;-70
2023/07/15 07:35:32;;;;;;;2.85;2.33;;;;;;;;;;5072804;28;20304;-70
2023/07/15 07:37:59;;;;;;;3.38;2.78;;;;;;;;;;5072545;28;20206;-70
2023/07/15 07:40:27;;;;;;;3.78;2.80;;;;;;;;;;5075856;28;20205;-70
2023/07/15 07:42:56;;;;;;;5.93;2.72;;;;;;;;;;5076174;28;20214;-72
2023/07/15 07:45:23;;;;;;;5.60;2.75;;;;;;;;;;5072207;28;20194;-70
2023/07/15 07:47:50;;;;;;;4.07;2.47;;;;;;;;;;5074838;28;20210;-70
2023/07/15 07:50:17;;;;;;;4.13;2.70;;;;;;;;;;5079340;28;20206;-69
2023/07/15 07:52:46;;;;;;;4.65;2.50;;;;;;;;;;5075065;28;20290;-70
2023/07/15 07:55:13;;;;;;;3.63;2.58;;;;;;;;;;5077241;28;20214;-69
2023/07/15 07:57:40;;;;;;;2.63;2.42;;;;;;;;;;5079647;28;20202;-69
2023/07/15 08:00:10;;;;;;;5.20;2.80;;;;;;;;;;5075318;28;20203;-68
2023/07/15 08:02:37;;;;;;;2.97;2.30;;;;;;;;;;5076996;28;20206;-67
2023/07/15 08:05:04;;;;;;;4.50;2.65;;;;;;;;;;5080775;28;20195;-67
2023/07/15 08:07:32;;;;;;;5.30;2.90;;;;;;;;;;5077006;28;20318;-70
2023/07/15 08:10:00;;;;;;;5.75;2.97;;;;;;;;;;5080858;28;20309;-69
2023/07/15 08:12:27;;;;;;;9.07;2.97;;;;;;;;;;5075250;28;20203;-69
2023/07/15 08:14:54;;;;;;;3.05;2.70;;;;;;;;;;5068544;28;20219;-69
2023/07/15 08:17:23;;;;;;;8.70;3.20;;;;;;;;;;5067660;28;20206;-68
2023/07/15 08:19:50;;;;;;;5.90;2.85;;;;;;;;;;5077343;28;20206;-69
2023/07/15 08:22:18;;;;;;;7.32;3.17;;;;;;;;;;5075017;28;20202;-68
2023/07/15 08:24:45;;;;;;;3.03;2.50;;;;;;;;;;5075509;28;20194;-68
2023/07/15 08:27:13;;;;;;;8.77;3.20;;;;;;;;;;5076326;28;20285;-67
2023/07/15 08:29:41;;;;;;;9.18;3.25;;;;;;;;;;5082174;28;20233;-69
2023/07/15 08:32:09;;;;;;;4.35;2.90;;;;;;;;;;5078904;28;20280;-68
2023/07/15 08:34:38;;;;;;;5.63;2.75;;;;;;;;;;5079174;28;20227;-69
2023/07/15 08:37:06;;;;;;;3.47;2.65;;;;;;;;;;5072087;28;20215;-68
2023/07/15 08:39:33;;;;;;;3.28;2.67;;;;;;;;;;5075530;28;20293;-69
2023/07/15 08:42:02;;;;;;;3.97;2.67;;;;;;;;;;5079643;28;20270;-69
2023/07/15 08:44:30;;;;;;;4.05;2.72;;;;;;;;;;5081096;28;20202;-68
2023/07/15 08:47:00;;;;;;;2.75;2.50;;;;;;;;;;5082371;28;20227;-69
2023/07/15 08:49:29;;;;;;;4.70;2.30;;;;;;;;;;5081628;28;20234;-68
2023/07/15 08:51:58;;;;;;;3.78;2.72;;;;;;;;;;5081176;28;20289;-69
2023/07/15 08:54:25;;;;;;;4.93;2.53;;;;;;;;;;5072085;28;20500;-69
2023/07/15 08:56:53;;;;;;;2.80;2.28;;;;;;;;;;5074017;28;20207;-68
2023/07/15 08:59:23;;;;;;;4.88;2.13;;;;;;;;;;5074857;28;20232;-68
2023/07/15 09:01:50;;;;;;;6.07;2.88;;;;;;;;;;5081116;28;20203;-68
2023/07/15 09:04:17;;;;;;;3.63;2.72;;;;;;;;;;5080332;28;20240;-69
2023/07/15 09:06:45;;;;;;;2.55;2.28;;;;;;;;;;5077738;28;20249;-68
2023/07/15 09:09:15;;;;;;;2.22;1.95;;;;;;;;;;5076281;28;20239;-71
2023/07/15 09:11:50;;;;;;;3.40;2.42;;;;;;;;;;5080236;28;20202;-68
2023/07/15 09:14:17;;;;;;;2.67;2.17;;;;;;;;;;5077019;28;20206;-68
2023/07/15 09:16:44;;;;;;;2.72;2.10;;;;;;;;;;5074285;28;20227;-68
2023/07/15 09:19:12;;;;;;;2.25;2.00;;;;;;;;;;5074482;28;20210;-68
2023/07/15 09:21:52;;;;;;;4.10;2.60;;;;;;;;;;5070187;28;20203;-69
2023/07/15 09:24:21;;;;;;;5.03;2.20;;;;;;;;;;5076350;28;20281;-68
2023/07/15 09:26:49;;;;;;;2.70;2.50;;;;;;;;;;5071398;28;20203;-69
2023/07/15 09:29:16;;;;;;;2.90;2.38;;;;;;;;;;5075930;28;20248;-69
2023/07/15 09:31:44;;;;;;;5.78;2.40;;;;;;;;;;5077521;28;20206;-68
2023/07/15 09:34:11;;;;;;;2.78;2.00;;;;;;;;;;5079505;28;20206;-69
2023/07/15 09:36:39;;;;;;;2.40;2.20;;;;;;;;;;5074083;28;20241;-68
2023/07/15 09:39:12;;;;;;;4.22;2.70;;;;;;;;;;5075472;28;20203;-68
2023/07/15 09:41:41;;;;;;;7.10;2.47;;;;;;;;;;5071853;28;20198;-69
2023/07/15 09:44:10;;;;;;;11.52;3.20;;;;;;;;;;5068621;28;20255;-69
2023/07/15 09:46:38;;;;;;;6.45;2.75;;;;;;;;;;5072720;28;20221;-68
2023/07/15 09:49:07;;;;;;;5.95;2.50;;;;;;;;;;5065614;28;20203;-69
2023/07/15 09:51:35;;;;;;;5.07;2.40;;;;;;;;;;5068128;28;20206;-69
2023/07/15 09:54:03;;;;;;;3.55;2.05;;;;;;;;;;5068381;28;20234;-70
2023/07/15 09:56:32;;;;;;;2.70;2.03;;;;;;;;;;5067377;28;20248;-70
2023/07/15 09:59:04;;;;;;;4.20;2.22;;;;;;;;;;5073672;28;20206;-70
2023/07/15 10:01:34;;;;;;;2.40;2.20;;;;;;;;;;5073284;28;20210;-70
2023/07/15 10:04:08;;;;;;;2.35;2.10;;;;;;;;;;5073604;28;20229;-69
2023/07/15 10:06:36;;;;;;;2.10;2.00;;;;;;;;;;5075827;28;20198;-69
2023/07/15 10:09:05;;;;;;;5.35;2.80;;;;;;;;;;5073450;28;20246;-69
2023/07/15 10:11:35;;;;;;;2.72;2.47;;;;;;;;;;5083237;28;20217;-68
2023/07/15 10:14:04;;;;;;;2.28;2.08;;;;;;;;;;5070979;28;20293;-73
2023/07/15 10:16:34;;;;;;;2.50;2.15;;;;;;;;;;5073851;28;20225;-72
2023/07/15 10:19:01;;;;;;;5.00;2.28;;;;;;;;;;5073040;28;20206;-72
2023/07/15 10:21:29;;;;;;;2.45;2.25;;;;;;;;;;5072013;28;20246;-72
2023/07/15 10:24:08;;;;;;;2.55;2.35;;;;;;;;;;5076866;28;20264;-72
2023/07/15 10:26:35;;;;;;;3.40;2.50;;;;;;;;;;5075808;28;20209;-72
2023/07/15 10:29:05;;;;;;;3.95;2.33;;;;;;;;;;5069436;28;20210;-72
2023/07/15 10:31:34;;;;;;;2.72;2.47;;;;;;;;;;5070541;28;20202;-73
2023/07/15 10:34:05;;;;;;;3.38;2.42;;;;;;;;;;5079638;28;20215;-72
2023/07/15 10:36:38;;;;;;;2.30;2.00;;;;;;;;;;5077620;28;20222;-73
2023/07/15 10:39:12;;;;;;;2.63;1.95;;;;;;;;;;5071323;28;20206;-73
2023/07/15 10:41:43;;;;;;;3.85;2.30;;;;;;;;;;5075084;28;20205;-73
2023/07/15 10:44:22;;;;;;;8.75;2.72;;;;;;;;;;5084484;28;20204;-73
2023/07/15 10:46:49;;;;;;;2.88;2.20;;;;;;;;;;5080000;28;20244;-73
2023/07/15 10:49:21;;;;;;;9.38;3.17;;;;;;;;;;5078745;28;20198;-73
2023/07/15 10:51:52;;;;;;;8.93;3.50;;;;;;;;;;5073383;28;20221;-73
2023/07/15 10:54:20;;;;;;;5.28;2.22;;;;;;;;;;5077498;28;20206;-73
2023/07/15 10:56:49;;;;;;;2.78;2.08;;;;;;;;;;5070383;28;20234;-71
2023/07/15 10:59:17;;;;;;;2.00;1.90;;;;;;;;;;5072968;28;20302;-73
2023/07/15 11:01:46;;;;;;;2.33;1.80;;;;;;;;;;5073265;28;20199;-73
2023/07/15 11:04:14;;;;;;;2.65;1.65;;;;;;;;;;5074720;28;20213;-73
2023/07/15 11:06:42;;;;;;;3.17;1.80;;;;;;;;;;5078658;28;20199;-73
2023/07/15 11:09:16;;;;;;;1.88;1.77;;;;;;;;;;5071266;28;20329;-73
2023/07/15 11:11:44;;;;;;;1.95;1.85;;;;;;;;;;5073696;28;20198;-74
2023/07/15 11:14:21;;;;;;;2.33;1.65;;;;;;;;;;5079713;28;20203;-73
2023/07/15 11:16:52;;;;;;;1.65;1.55;;;;;;;;;;5075810;28;20232;-73
2023/07/15 11:19:20;;;;;;;2.15;1.90;;;;;;;;;;5072955;28;20210;-73
2023/07/15 11:21:47;;;;;;;2.88;1.98;;;;;;;;;;5073762;28;20206;-73
2023/07/15 11:24:15;;;;;;;3.03;1.80;;;;;;;;;;5077653;28;20293;-72
2023/07/15 11:26:43;;;;;;;3.08;1.70;;;;;;;;;;5079815;28;20224;-74
2023/07/15 11:29:20;;;;;;;1.85;1.60;;;;;;;;;;5077255;28;20279;-73
2023/07/15 11:31:48;;;;;;;3.13;1.70;;;;;;;;;;5081612;28;20206;-72
2023/07/15 11:34:27;;;;;;;1.80;1.70;;;;;;;;;;5077942;28;20300;-73
2023/07/15 11:36:55;;;;;;;2.35;2.00;;;;;;;;;;5077300;28;20210;-74
2023/07/15 11:39:23;;;;;;;3.55;1.92;;;;;;;;;;5076030;28;20207;-73
2023/07/15 11:41:50;;;;;;;2.83;1.83;;;;;;;;;;5080530;28;20229;-73
2023/07/15 11:44:21;;;;;;;1.70;1.60;;;;;;;;;;5081128;28;20238;-73
2023/07/15 11:46:50;;;;;;;3.35;1.90;;;;;;;;;;5080818;28;20195;-73
2023/07/15 11:49:22;;;;;;;2.63;1.98;;;;;;;;;;5075202;28;20199;-72
2023/07/15 11:51:50;;;;;;;2.22;1.70;;;;;;;;;;5078040;28;20214;-72
2023/07/15 11:54:18;;;;;;;2.50;1.80;;;;;;;;;;5079049;28;20214;-73
2023/07/15 11:56:46;;;;;;;1.98;1.88;;;;;;;;;;5076166;28;20226;-74
2023/07/15 11:59:13;;;;;;;2.67;1.83;;;;;;;;;;5080367;28;20248;-73
2023/07/15 12:01:41;;;;;;;1.73;1.63;;;;;;;;;;5083090;28;20210;-73
2023/07/15 12:04:15;;;;;;;2.10;2.00;;;;;;;;;;5078905;28;20204;-74
2023/07/15 12:06:51;;;;;;;2.25;1.90;;;;;;;;;;5078935;28;20195;-73
2023/07/15 12:09:18;;;;;;;2.40;2.10;;;;;;;;;;5079353;28;20234;-73
2023/07/15 12:11:46;;;;;;;1.75;1.65;;;;;;;;;;5077823;28;20206;-74
2023/07/15 12:14:15;;;;;;;2.78;1.95;;;;;;;;;;5074153;28;20198;-74
2023/07/15 12:16:43;;;;;;;2.42;2.15;;;;;;;;;;5074124;28;20317;-74
2023/07/15 12:19:12;;;;;;;2.85;2.10;;;;;;;;;;5072553;28;20210;-74
2023/07/15 12:21:39;;;;;;;3.28;1.90;;;;;;;;;;5072301;28;20202;-74
2023/07/15 12:24:08;;;;;;;1.98;1.77;;;;;;;;;;5080619;28;20289;-75
2023/07/15 12:26:35;;;;;;;3.20;2.10;;;;;;;;;;5083697;28;20195;-74
2023/07/15 12:29:03;;;;;;;2.42;1.95;;;;;;;;;;5077746;28;20282;-69
2023/07/15 12:31:30;;;;;;;3.17;1.90;;;;;;;;;;5076055;28;20298;-68
2023/07/15 12:33:58;;;;;;;4.13;1.90;;;;;;;;;;5080931;28;20203;-69
2023/07/15 12:36:25;;;;;;;2.40;1.88;;;;;;;;;;5073091;28;20227;-69
2023/07/15 12:38:52;;;;;;;3.13;2.15;;;;;;;;;;5073953;28;20253;-68
2023/07/15 12:41:22;;;;;;;2.00;1.90;;;;;;;;;;5069678;28;20199;-68
2023/07/15 12:43:51;;;;;;;1.83;1.73;;;;;;;;;;5070331;28;20226;-67
2023/07/15 12:46:18;;;;;;;2.10;2.00;;;;;;;;;;5065357;28;20210;-66
2023/07/15 12:48:48;;;;;;;3.58;2.10;;;;;;;;;;5074135;28;20214;-68
2023/07/15 12:51:17;;;;;;;2.33;1.90;;;;;;;;;;5073389;28;20210;-67
2023/07/15 12:53:44;;;;;;;2.20;2.00;;;;;;;;;;5070930;28;20203;-70
2023/07/15 12:56:13;;;;;;;2.25;2.00;;;;;;;;;;5070659;28;20237;-67
2023/07/15 12:58:42;;;;;;;2.58;2.00;;;;;;;;;;5075942;28;20203;-66
2023/07/15 13:01:09;;;;;;;3.80;1.88;;;;;;;;;;5073209;28;20222;-69
2023/07/15 13:03:37;;;;;;;1.92;1.80;;;;;;;;;;5078889;28;20293;-68
2023/07/15 13:06:04;;;;;;;2.63;2.00;;;;;;;;;;5081618;28;20202;-68
2023/07/15 13:08:32;;;;;;;3.05;2.03;;;;;;;;;;5075869;28;20206;-66
2023/07/15 13:10:59;;;;;;;2.40;2.20;;;;;;;;;;5079186;28;20210;-66
2023/07/15 13:13:26;;;;;;;2.25;2.00;;;;;;;;;;5071340;28;20217;-70
2023/07/15 13:15:56;;;;;;;2.00;1.90;;;;;;;;;;5065637;28;20222;-68
2023/07/15 13:18:24;;;;;;;2.38;2.17;;;;;;;;;;5074969;28;20210;-66
2023/07/15 13:20:51;;;;;;;2.72;2.15;;;;;;;;;;5072812;28;20260;-67
2023/07/15 13:23:18;;;;;;;2.42;1.85;;;;;;;;;;5077064;28;20202;-65
2023/07/15 13:25:45;;;;;;;2.28;2.03;;;;;;;;;;5076859;28;20252;-65
2023/07/15 13:28:13;;;;;;;2.10;1.90;;;;;;;;;;5070799;28;20205;-68
2023/07/15 13:30:40;;;;;;;2.20;2.00;;;;;;;;;;5075164;28;20314;-65
2023/07/15 13:33:09;;;;;;;2.95;2.00;;;;;;;;;;5072429;28;20306;-65
2023/07/15 13:35:36;;;;;;;2.38;2.17;;;;;;;;;;5074145;28;20205;-65
2023/07/15 13:38:04;;;;;;;3.53;2.25;;;;;;;;;;5075397;28;20217;-67
2023/07/15 13:40:31;;;;;;;2.13;1.80;;;;;;;;;;5075934;28;20203;-67
2023/07/15 13:42:58;;;;;;;3.08;1.80;;;;;;;;;;5074573;28;20255;-65
2023/07/15 13:45:26;;;;;;;2.13;2.03;;;;;;;;;;5075541;28;20214;-66
2023/07/15 13:47:53;;;;;;;2.75;1.98;;;;;;;;;;5073365;28;20198;-67
2023/07/15 13:50:22;;;;;;;1.95;1.80;;;;;;;;;;5074113;28;20351;-67
2023/07/15 13:52:49;;;;;;;2.10;1.90;;;;;;;;;;5071407;28;20210;-66
2023/07/15 13:55:17;;;;;;;3.05;2.30;;;;;;;;;;5075446;28;20205;-65
2023/07/15 13:57:44;;;;;;;3.85;2.10;;;;;;;;;;5071326;28;20234;-67
2023/07/15 14:00:12;;;;;;;2.58;2.40;;;;;;;;;;5073041;28;20236;-67
2023/07/15 14:02:40;;;;;;;2.78;2.58;;;;;;;;;;5072136;28;20203;-67
2023/07/15 14:05:07;;;;;;;2.60;2.40;;;;;;;;;;5084384;28;20202;-68
2023/07/15 14:07:36;;;;;;;3.15;2.08;;;;;;;;;;5077598;28;20198;-66
2023/07/15 14:10:04;;;;;;;2.30;2.05;;;;;;;;;;5081989;28;20238;-65
2023/07/15 14:12:32;;;;;;;2.25;1.98;;;;;;;;;;5074841;28;20269;-66
2023/07/15 14:14:59;;;;;;;1.83;1.73;;;;;;;;;;5083797;28;20202;-67
2023/07/15 14:17:26;;;;;;;2.00;1.90;;;;;;;;;;5081562;28;20222;-64
2023/07/15 14:19:54;;;;;;;3.22;1.90;;;;;;;;;;5081636;28;20206;-67
2023/07/15 14:22:21;;;;;;;1.95;1.83;;;;;;;;;;5077982;28;20297;-67
2023/07/15 14:24:50;;;;;;;3.13;1.90;;;;;;;;;;5078127;28;20224;-67
2023/07/15 14:27:18;;;;;;;4.63;2.00;;;;;;;;;;5078028;28;20194;-67
2023/07/15 14:29:45;;;;;;;1.80;1.70;;;;;;;;;;5080465;28;20219;-67
2023/07/15 14:32:13;;;;;;;2.33;1.95;;;;;;;;;;5080093;28;20204;-66
2023/07/15 14:34:40;;;;;;;1.92;1.80;;;;;;;;;;5085248;28;20201;-67
2023/07/15 14:37:08;;;;;;;2.22;1.92;;;;;;;;;;5075242;28;20226;-67
2023/07/15 14:39:36;;;;;;;2.20;2.00;;;;;;;;;;5072920;28;20268;-65
2023/07/15 14:42:05;;;;;;;2.20;2.10;;;;;;;;;;5077908;28;20198;-67
2023/07/15 14:44:32;;;;;;;2.45;2.25;;;;;;;;;;5081035;28;20209;-67
2023/07/15 14:47:00;;;;;;;2.28;2.05;;;;;;;;;;5080265;28;20263;-67
2023/07/15 14:49:27;;;;;;;2.42;2.22;;;;;;;;;;5072366;28;20265;-67